createdAt,value
2022-11-28T00:01:25.764Z,87.26
2022-11-28T00:03:53.742Z,86.86
2022-11-28T00:06:21.912Z,87.25
2022-11-28T00:08:49.880Z,88.09
2022-11-28T00:11:19.316Z,88.39
2022-11-28T00:13:47.578Z,88.76
2022-11-28T00:16:16.542Z,87.80
2022-11-28T00:18:44.930Z,88.24
2022-11-28T00:21:13.781Z,88.22
2022-11-28T00:23:41.962Z,88.67
2022-11-28T00:26:10.776Z,88.84
2022-11-28T00:28:40.127Z,88.91
2022-11-28T00:31:14.103Z,88.71
2022-11-28T00:33:42.468Z,89.05
2022-11-28T00:36:11.238Z,89.49
2022-11-28T00:38:39.257Z,89.98
2022-11-28T00:41:08.130Z,90.38
2022-11-28T00:43:36.046Z,90.35
2022-11-28T00:46:05.683Z,90.54
2022-11-28T00:48:33.963Z,90.47
2022-11-28T00:51:05.971Z,90.62
2022-11-28T00:53:33.972Z,90.80
2022-11-28T00:56:01.782Z,91.34
2022-11-28T00:58:29.607Z,91.53
2022-11-28T01:00:57.549Z,91.59
2022-11-28T01:03:26.804Z,91.63
2022-11-28T01:05:54.883Z,91.54
2022-11-28T01:08:22.859Z,91.35
2022-11-28T01:10:50.649Z,91.09
2022-11-28T01:13:18.585Z,91.58
2022-11-28T01:15:46.585Z,90.73
2022-11-28T01:18:14.705Z,90.82
2022-11-28T01:20:43.856Z,91.53
2022-11-28T01:23:11.724Z,91.50
2022-11-28T01:25:39.753Z,91.06
2022-11-28T01:28:07.573Z,91.20
2022-11-28T01:30:35.644Z,91.37
2022-11-28T01:33:03.523Z,92.38
2022-11-28T01:35:31.342Z,92.18
2022-11-28T01:38:01.632Z,92.22
2022-11-28T01:40:29.515Z,92.09
2022-11-28T01:42:57.569Z,92.15
2022-11-28T01:45:26.326Z,92.43
2022-11-28T01:47:57.411Z,92.56
2022-11-28T01:50:25.938Z,92.51
2022-11-28T01:52:56.536Z,92.22
2022-11-28T01:55:27.574Z,93.02
2022-11-28T01:57:56.195Z,93.05
2022-11-28T02:00:24.195Z,93.38
2022-11-28T02:02:53.737Z,93.11
2022-11-28T02:05:22.635Z,93.58
2022-11-28T02:07:51.234Z,93.54
2022-11-28T02:10:21.113Z,93.63
2022-11-28T02:12:58.671Z,93.65
2022-11-28T02:15:34.775Z,93.52
2022-11-28T02:18:09.863Z,93.34
2022-11-28T02:20:50.203Z,93.56
2022-11-28T02:23:22.223Z,93.52
2022-11-28T02:26:09.639Z,92.88
2022-11-28T02:29:00.128Z,93.13
2022-11-28T02:31:39.106Z,93.07
2022-11-28T02:34:10.987Z,93.24
2022-11-28T02:36:45.102Z,93.07
2022-11-28T02:39:15.832Z,92.99
2022-11-28T02:41:45.953Z,92.91
2022-11-28T02:44:16.275Z,93.53
2022-11-28T02:46:50.140Z,93.34
2022-11-28T02:49:22.956Z,92.55
2022-11-28T02:51:53.881Z,92.17
2022-11-28T02:54:22.687Z,92.37
2022-11-28T02:56:51.798Z,92.15
2022-11-28T02:59:30.708Z,92.32
2022-11-28T03:01:58.984Z,91.12
2022-11-28T03:04:31.659Z,91.26
2022-11-28T03:07:03.082Z,91.05
2022-11-28T03:09:39.231Z,91.65
2022-11-28T03:12:14.372Z,91.99
2022-11-28T03:14:46.805Z,92.13
2022-11-28T03:17:19.709Z,92.33
2022-11-28T03:19:56.033Z,91.62
2022-11-28T03:22:44.575Z,92.36
2022-11-28T03:25:18.664Z,92.57
2022-11-28T03:27:48.051Z,92.21
2022-11-28T03:30:20.473Z,92.33
2022-11-28T03:32:51.150Z,91.86
2022-11-28T03:35:23.341Z,91.91
2022-11-28T03:37:54.132Z,91.58
2022-11-28T03:40:24.614Z,92.34
2022-11-28T03:42:55.377Z,92.15
2022-11-28T03:45:25.283Z,92.40
2022-11-28T03:47:56.560Z,92.16
2022-11-28T03:50:28.505Z,92.70
2022-11-28T03:52:59.935Z,92.56
2022-11-28T03:55:31.226Z,92.94
2022-11-28T03:58:01.714Z,92.22
2022-11-28T04:00:29.824Z,92.47
2022-11-28T04:03:06.652Z,92.66
2022-11-28T04:05:42.788Z,92.25
2022-11-28T04:08:15.190Z,91.94
2022-11-28T04:10:44.658Z,90.73
2022-11-28T04:13:16.520Z,91.13
2022-11-28T04:15:47.069Z,91.27
2022-11-28T04:18:21.732Z,90.73
2022-11-28T04:20:54.475Z,91.21
2022-11-28T04:23:22.952Z,91.06
2022-11-28T04:25:53.223Z,90.82
2022-11-28T04:28:23.163Z,91.25
2022-11-28T04:30:51.886Z,90.90
2022-11-28T04:33:21.380Z,90.05
2022-11-28T04:35:54.009Z,89.01
2022-11-28T04:38:24.650Z,89.13
2022-11-28T04:40:53.932Z,88.62
2022-11-28T04:43:24.988Z,89.43
2022-11-28T04:45:55.672Z,89.72
2022-11-28T04:48:23.974Z,90.16
2022-11-28T04:50:54.903Z,89.79
2022-11-28T04:53:28.271Z,89.38
2022-11-28T04:56:01.265Z,89.62
2022-11-28T04:58:33.816Z,89.31
2022-11-28T05:01:04.560Z,90.17
2022-11-28T05:03:32.679Z,89.56
2022-11-28T05:06:00.517Z,89.56
2022-11-28T05:08:29.646Z,89.57
2022-11-28T05:10:57.584Z,89.78
2022-11-28T05:13:25.480Z,88.76
2022-11-28T05:15:53.397Z,89.05
2022-11-28T05:18:21.227Z,89.15
2022-11-28T05:20:49.061Z,88.68
2022-11-28T05:23:16.965Z,88.67
2022-11-28T05:25:46.230Z,88.36
2022-11-28T05:28:13.951Z,88.51
2022-11-28T05:30:41.741Z,89.42
2022-11-28T05:33:09.600Z,89.55
2022-11-28T05:35:39.836Z,89.65
2022-11-28T05:38:13.253Z,89.90
2022-11-28T05:40:44.236Z,89.66
2022-11-28T05:43:13.460Z,90.27
2022-11-28T05:45:41.536Z,88.99
2022-11-28T05:48:09.381Z,88.61
2022-11-28T05:50:40.144Z,88.63
2022-11-28T05:53:08.386Z,89.43
2022-11-28T05:55:37.891Z,87.92
2022-11-28T05:58:05.754Z,88.71
2022-11-28T06:00:34.892Z,88.73
2022-11-28T06:03:02.682Z,89.54
2022-11-28T06:05:41.667Z,87.96
2022-11-28T06:08:11.752Z,87.08
2022-11-28T06:10:39.698Z,87.09
2022-11-28T06:13:08.733Z,88.05
2022-11-28T06:15:38.727Z,87.12
2022-11-28T06:18:06.621Z,87.50
2022-11-28T06:20:35.769Z,86.70
2022-11-28T06:23:04.878Z,86.39
2022-11-28T06:25:32.690Z,87.00
2022-11-28T06:28:00.468Z,86.74
2022-11-28T06:30:28.259Z,86.89
2022-11-28T06:32:57.605Z,86.60
2022-11-28T06:35:25.472Z,87.52
2022-11-28T06:37:53.290Z,86.98
2022-11-28T06:40:22.536Z,86.46
2022-11-28T06:42:51.191Z,85.35
2022-11-28T06:45:19.130Z,86.05
2022-11-28T06:47:47.231Z,86.63
2022-11-28T06:50:16.713Z,86.15
2022-11-28T06:52:44.547Z,86.45
2022-11-28T06:55:12.332Z,86.49
2022-11-28T06:57:40.355Z,86.70
2022-11-28T07:00:08.917Z,85.49
2022-11-28T07:02:36.884Z,86.85
2022-11-28T07:05:04.918Z,86.83
2022-11-28T07:07:41.758Z,86.75
2022-11-28T07:10:21.036Z,86.49
2022-11-28T07:12:48.877Z,85.60
2022-11-28T07:15:16.743Z,84.97
2022-11-28T07:17:44.553Z,83.73
2022-11-28T07:20:12.788Z,82.76
2022-11-28T07:22:42.972Z,81.92
2022-11-28T07:25:11.032Z,81.44
2022-11-28T07:27:38.907Z,81.46
2022-11-28T07:30:07.567Z,80.81
2022-11-28T07:32:35.505Z,80.79
2022-11-28T07:35:04.508Z,80.53
2022-11-28T07:37:32.320Z,80.26
2022-11-28T07:40:01.444Z,79.83
2022-11-28T07:42:29.303Z,78.88
2022-11-28T07:44:57.200Z,79.44
2022-11-28T07:47:25.667Z,79.56
2022-11-28T07:49:54.238Z,78.76
2022-11-28T07:52:22.645Z,77.96
2022-11-28T07:54:50.976Z,77.48
2022-11-28T07:57:20.180Z,78.87
2022-11-28T07:59:48.302Z,77.90
2022-11-28T08:02:16.139Z,78.63
2022-11-28T08:04:48.570Z,76.97
2022-11-28T08:07:20.047Z,77.35
2022-11-28T08:09:47.919Z,78.57
2022-11-28T08:12:15.843Z,77.74
2022-11-28T08:14:45.315Z,77.48
2022-11-28T08:17:13.204Z,77.21
2022-11-28T08:19:41.192Z,76.92
2022-11-28T08:22:09.061Z,76.84
2022-11-28T08:24:37.305Z,77.26
2022-11-28T08:27:05.156Z,76.61
2022-11-28T08:29:33.165Z,75.66
2022-11-28T08:32:05.244Z,75.62
2022-11-28T08:34:34.513Z,75.52
2022-11-28T08:37:02.292Z,75.67
2022-11-28T08:39:30.205Z,75.31
2022-11-28T08:41:58.849Z,75.03
2022-11-28T08:44:27.376Z,74.73
2022-11-28T08:46:55.713Z,74.87
2022-11-28T08:49:24.866Z,74.08
2022-11-28T08:51:52.884Z,74.45
2022-11-28T08:54:20.820Z,74.64
2022-11-28T08:56:48.700Z,73.97
2022-11-28T08:59:20.004Z,74.42
2022-11-28T09:01:56.188Z,73.88
2022-11-28T09:04:28.155Z,74.48
2022-11-28T09:06:56.003Z,74.47
2022-11-28T09:09:23.937Z,74.38
2022-11-28T09:11:51.735Z,73.82
2022-11-28T09:14:19.552Z,74.50
2022-11-28T09:16:47.590Z,74.47
2022-11-28T09:19:15.457Z,73.85
2022-11-28T09:21:44.603Z,74.95
2022-11-28T09:24:13.913Z,74.47
2022-11-28T09:26:44.233Z,74.29
2022-11-28T09:29:12.508Z,74.78
2022-11-28T09:31:45.821Z,75.06
2022-11-28T09:34:15.528Z,74.52
2022-11-28T09:36:44.722Z,74.40
2022-11-28T09:39:12.540Z,74.07
2022-11-28T09:41:45.160Z,74.25
2022-11-28T09:44:17.055Z,74.10
2022-11-28T09:46:45.736Z,74.68
2022-11-28T09:49:24.869Z,74.99
2022-11-28T09:51:57.788Z,74.90
2022-11-28T09:54:30.488Z,75.49
2022-11-28T09:56:59.816Z,76.62
2022-11-28T09:59:29.032Z,76.39
2022-11-28T10:02:01.510Z,77.66
2022-11-28T10:04:34.366Z,78.61
2022-11-28T10:07:09.522Z,79.24
2022-11-28T10:09:42.240Z,80.05
2022-11-28T10:12:20.385Z,80.61
2022-11-28T10:15:03.593Z,80.31
2022-11-28T10:17:37.791Z,80.72
2022-11-28T10:20:06.838Z,80.85
2022-11-28T10:22:40.346Z,81.36
2022-11-28T10:25:13.484Z,81.77
2022-11-28T10:27:41.997Z,81.64
2022-11-28T10:30:16.552Z,81.75
2022-11-28T10:32:46.262Z,81.68
2022-11-28T10:35:23.862Z,81.87
2022-11-28T10:37:56.116Z,81.73
2022-11-28T10:40:26.852Z,81.39
2022-11-28T10:42:57.729Z,81.61
2022-11-28T10:45:31.761Z,82.51
2022-11-28T10:48:37.584Z,82.08
2022-11-28T10:51:02.787Z,82.39
2022-11-28T10:53:39.147Z,82.66
2022-11-28T10:56:13.930Z,82.34
2022-11-28T10:58:47.998Z,82.52
2022-11-28T11:01:17.674Z,82.37
2022-11-28T11:03:45.672Z,82.17
2022-11-28T11:06:13.480Z,82.58
2022-11-28T11:08:42.784Z,82.94
2022-11-28T11:11:19.353Z,82.74
2022-11-28T11:13:57.925Z,83.25
2022-11-28T11:16:25.897Z,83.18
2022-11-28T11:18:54.703Z,83.01
2022-11-28T11:21:37.189Z,82.55
2022-11-28T11:24:13.372Z,83.30
2022-11-28T11:26:43.448Z,83.00
2022-11-28T11:29:21.238Z,83.43
2022-11-28T11:31:51.873Z,84.06
2022-11-28T11:34:20.901Z,84.24
2022-11-28T11:36:49.290Z,84.68
2022-11-28T11:39:20.947Z,84.95
2022-11-28T11:41:49.718Z,85.49
2022-11-28T11:44:26.521Z,85.52
2022-11-28T11:46:55.148Z,86.21
2022-11-28T11:49:28.918Z,85.42
2022-11-28T11:51:57.636Z,85.45
2022-11-28T11:54:26.925Z,86.37
2022-11-28T11:57:11.199Z,86.39
2022-11-28T11:59:45.237Z,86.96
2022-11-28T12:02:20.511Z,87.44
2022-11-28T12:04:55.320Z,87.98
2022-11-28T12:07:47.424Z,88.20
2022-11-28T12:10:19.069Z,88.47
2022-11-28T12:12:47.179Z,89.61
2022-11-28T12:15:17.815Z,89.50
2022-11-28T12:17:58.362Z,89.78
2022-11-28T12:20:36.940Z,89.82
2022-11-28T12:23:17.135Z,90.08
2022-11-28T12:25:53.670Z,90.19
2022-11-28T12:28:29.254Z,90.67
2022-11-28T12:31:04.022Z,90.77
2022-11-28T12:33:40.063Z,91.26
2022-11-28T12:36:15.916Z,91.27
2022-11-28T12:38:52.177Z,91.57
2022-11-28T12:41:32.620Z,91.89
2022-11-28T12:44:08.370Z,91.81
2022-11-28T12:46:42.357Z,91.51
2022-11-28T12:49:16.896Z,92.00
2022-11-28T12:51:53.007Z,91.70
2022-11-28T12:54:30.713Z,92.21
2022-11-28T12:57:05.484Z,92.21
2022-11-28T12:59:35.902Z,91.72
2022-11-28T13:02:19.365Z,91.83
2022-11-28T13:04:57.142Z,92.26
2022-11-28T13:07:30.138Z,92.02
2022-11-28T13:10:02.487Z,91.82
2022-11-28T13:12:40.911Z,92.56
2022-11-28T13:15:14.185Z,92.89
2022-11-28T13:17:45.396Z,92.75
2022-11-28T13:20:17.346Z,93.26
2022-11-28T13:22:53.324Z,92.53
2022-11-28T13:25:25.071Z,92.70
2022-11-28T13:27:57.314Z,92.71
2022-11-28T13:30:26.693Z,92.87
2022-11-28T13:32:59.961Z,92.90
2022-11-28T13:35:29.050Z,92.99
2022-11-28T13:40:50.990Z,92.96
2022-11-28T13:43:25.349Z,91.76
2022-11-28T13:45:53.797Z,92.44
2022-11-28T13:49:12.536Z,93.02
2022-11-28T13:51:32.124Z,92.13
2022-11-28T13:54:19.706Z,92.91
2022-11-28T13:56:48.524Z,92.90
2022-11-28T13:59:21.223Z,92.97
2022-11-28T14:01:54.920Z,93.09
2022-11-28T14:04:24.064Z,93.12
2022-11-28T14:06:54.462Z,93.61
2022-11-28T14:09:31.427Z,94.06
2022-11-28T14:12:07.881Z,93.79
2022-11-28T14:14:46.202Z,93.86
2022-11-28T14:17:24.289Z,93.77
2022-11-28T14:19:59.700Z,93.25
2022-11-28T14:22:38.926Z,93.24
2022-11-28T14:25:10.646Z,93.30
2022-11-28T14:27:40.638Z,94.22
2022-11-28T14:30:24.025Z,93.98
2022-11-28T14:32:56.827Z,93.13
2022-11-28T14:35:43.605Z,93.15
2022-11-28T14:38:26.458Z,93.95
2022-11-28T14:41:03.256Z,94.26
2022-11-28T14:43:31.966Z,94.28
2022-11-28T14:46:14.683Z,94.58
2022-11-28T14:49:04.102Z,94.26
2022-11-28T14:51:47.009Z,94.48
2022-11-28T14:54:21.926Z,94.32
2022-11-28T14:56:52.960Z,94.16
2022-11-28T14:59:27.788Z,94.61
2022-11-28T15:01:59.688Z,94.63
2022-11-28T15:04:44.531Z,95.09
2022-11-28T15:07:23.946Z,94.74
2022-11-28T15:09:59.850Z,95.02
2022-11-28T15:12:34.404Z,95.24
2022-11-28T15:15:03.909Z,95.01
2022-11-28T15:17:33.932Z,95.10
2022-11-28T15:20:04.192Z,95.41
2022-11-28T15:22:33.353Z,95.43
2022-11-28T15:25:18.798Z,95.35
2022-11-28T15:27:46.786Z,95.07
2022-11-28T15:30:18.692Z,95.85
2022-11-28T15:32:47.247Z,95.81
2022-11-28T15:35:17.596Z,96.03
2022-11-28T15:37:50.452Z,95.70
2022-11-28T15:40:21.494Z,95.54
2022-11-28T15:42:50.071Z,95.78
2022-11-28T15:45:23.156Z,96.52
2022-11-28T15:47:51.540Z,96.33
2022-11-28T15:50:20.646Z,96.70
2022-11-28T15:52:55.461Z,96.78
2022-11-28T15:55:25.651Z,96.99
2022-11-28T15:58:10.025Z,96.82
2022-11-28T16:00:40.044Z,96.58
2022-11-28T16:03:10.868Z,96.78
2022-11-28T16:05:39.957Z,96.74
2022-11-28T16:08:18.244Z,96.57
2022-11-28T16:10:47.642Z,96.93
2022-11-28T16:13:17.269Z,96.32
2022-11-28T16:15:50.476Z,97.24
2022-11-28T16:18:19.048Z,96.83
2022-11-28T16:20:47.236Z,97.00
2022-11-28T16:23:19.323Z,97.08
2022-11-28T16:25:58.996Z,97.27
2022-11-28T16:28:31.652Z,97.35
2022-11-28T16:30:59.939Z,97.23
2022-11-28T16:33:41.145Z,97.30
2022-11-28T16:36:17.922Z,97.10
2022-11-28T16:38:47.125Z,97.40
2022-11-28T16:41:21.592Z,97.05
2022-11-28T16:43:51.024Z,96.86
2022-11-28T16:46:20.927Z,97.38
2022-11-28T16:48:50.027Z,97.17
2022-11-28T16:51:37.357Z,96.99
2022-11-28T16:54:23.178Z,97.21
2022-11-28T16:56:57.440Z,96.73
2022-11-28T16:59:25.967Z,96.90
2022-11-28T17:01:54.555Z,97.03
2022-11-28T17:04:23.455Z,96.96
2022-11-28T17:06:52.112Z,96.78
2022-11-28T17:09:20.354Z,97.32
2022-11-28T17:11:51.816Z,97.32
2022-11-28T17:14:21.074Z,97.33
2022-11-28T17:16:49.238Z,97.07
2022-11-28T17:19:17.570Z,97.79
2022-11-28T17:21:46.325Z,98.01
2022-11-28T17:24:18.778Z,97.28
2022-11-28T17:26:46.918Z,98.07
2022-11-28T17:29:15.760Z,97.91
2022-11-28T17:31:46.792Z,97.57
2022-11-28T17:34:16.303Z,98.32
2022-11-28T17:36:44.345Z,97.92
2022-11-28T17:39:12.600Z,98.32
2022-11-28T17:41:40.782Z,97.95
2022-11-28T17:44:15.425Z,98.05
2022-11-28T17:46:44.896Z,98.80
2022-11-28T17:49:12.661Z,98.60
2022-11-28T17:51:40.653Z,98.80
2022-11-28T17:54:08.478Z,98.91
2022-11-28T17:56:36.321Z,98.34
2022-11-28T17:59:04.536Z,98.99
2022-11-28T18:01:32.438Z,98.46
2022-11-28T18:04:01.613Z,98.66
2022-11-28T18:06:29.488Z,98.78
2022-11-28T18:08:58.760Z,98.97
2022-11-28T18:11:27.919Z,98.76
2022-11-28T18:13:55.755Z,99.05
2022-11-28T18:16:25.450Z,98.93
2022-11-28T18:18:53.320Z,99.21
2022-11-28T18:21:22.621Z,99.31
2022-11-28T18:23:50.810Z,99.38
2022-11-28T18:26:20.248Z,98.80
2022-11-28T18:28:48.094Z,99.35
2022-11-28T18:31:18.368Z,98.87
2022-11-28T18:33:46.869Z,99.38
2022-11-28T18:36:16.136Z,99.06
2022-11-28T18:38:46.220Z,99.15
2022-11-28T18:41:15.070Z,99.27
2022-11-28T18:43:44.001Z,99.12
2022-11-28T18:46:13.184Z,99.14
2022-11-28T18:48:42.016Z,99.10
2022-11-28T18:51:13.220Z,98.91
2022-11-28T18:53:41.268Z,99.41
2022-11-28T18:56:16.840Z,99.25
2022-11-28T18:58:45.803Z,99.53
2022-11-28T19:01:14.795Z,99.03
2022-11-28T19:03:43.986Z,99.42
2022-11-28T19:06:13.906Z,99.20
2022-11-28T19:08:41.747Z,99.10
2022-11-28T19:11:14.315Z,99.35
2022-11-28T19:13:42.512Z,99.44
2022-11-28T19:16:10.974Z,99.44
2022-11-28T19:18:39.333Z,99.42
2022-11-28T19:21:07.314Z,99.79
2022-11-28T19:23:35.429Z,99.52
2022-11-28T19:26:04.151Z,99.56
2022-11-28T19:28:33.484Z,99.59
2022-11-28T19:31:05.351Z,99.66
2022-11-28T19:33:33.409Z,99.76
2022-11-28T19:36:01.930Z,99.78
2022-11-28T19:38:29.813Z,99.97
2022-11-28T19:40:58.122Z,99.73
2022-11-28T19:43:26.017Z,100.00
2022-11-28T19:45:58.550Z,100.00
2022-11-28T19:48:29.000Z,99.80
2022-11-28T19:50:56.899Z,100.00
2022-11-28T19:53:24.813Z,99.87
2022-11-28T19:55:53.986Z,100.00
2022-11-28T19:58:22.648Z,100.00
2022-11-28T20:00:50.587Z,100.00
2022-11-28T20:03:19.900Z,100.00
2022-11-28T20:05:47.849Z,100.00
2022-11-28T20:08:15.627Z,100.00
2022-11-28T20:10:43.499Z,100.00
2022-11-28T20:13:11.391Z,100.00
2022-11-28T20:15:39.352Z,100.00
2022-11-28T20:18:07.637Z,100.00
2022-11-28T20:20:37.496Z,100.00
2022-11-28T20:23:09.108Z,100.00
2022-11-28T20:25:37.084Z,100.00
2022-11-28T20:28:05.382Z,100.00
2022-11-28T20:30:37.192Z,100.00
2022-11-28T20:33:05.095Z,100.00
2022-11-28T20:35:33.067Z,100.00
2022-11-28T20:38:02.909Z,100.00
2022-11-28T20:40:30.945Z,100.00
2022-11-28T20:42:59.453Z,100.00
2022-11-28T20:45:27.299Z,100.00
2022-11-28T20:47:55.193Z,100.00
2022-11-28T20:50:28.075Z,100.00
2022-11-28T20:52:56.591Z,100.00
2022-11-28T20:55:25.876Z,100.00
2022-11-28T20:57:53.955Z,100.00
2022-11-28T21:00:26.344Z,100.00
2022-11-28T21:02:54.740Z,100.00
2022-11-28T21:05:22.587Z,100.00
2022-11-28T21:07:52.858Z,100.00
2022-11-28T21:10:21.194Z,100.00
2022-11-28T21:12:50.749Z,100.00
2022-11-28T21:15:21.159Z,100.00
2022-11-28T21:17:49.519Z,100.00
2022-11-28T21:20:17.356Z,100.00
2022-11-28T21:22:45.713Z,100.00
2022-11-28T21:25:13.583Z,100.00
2022-11-28T21:27:41.983Z,100.00
2022-11-28T21:30:12.154Z,100.00
2022-11-28T21:32:40.250Z,100.00
2022-11-28T21:35:09.400Z,100.00
2022-11-28T21:37:38.871Z,100.00
2022-11-28T21:40:07.806Z,100.00
2022-11-28T21:42:35.599Z,100.00
2022-11-28T21:45:03.695Z,100.00
2022-11-28T21:47:32.919Z,100.00
2022-11-28T21:50:02.471Z,100.00
2022-11-28T21:52:30.838Z,100.00
2022-11-28T21:54:58.817Z,100.00
2022-11-28T21:57:27.113Z,100.00
2022-11-28T21:59:57.021Z,100.00
2022-11-28T22:02:30.451Z,100.00
2022-11-28T22:05:00.224Z,100.00
2022-11-28T22:07:28.217Z,100.00
2022-11-28T22:09:56.194Z,100.00
2022-11-28T22:12:24.050Z,100.00
2022-11-28T22:14:51.885Z,100.00
2022-11-28T22:17:20.026Z,100.00
2022-11-28T22:19:47.862Z,100.00
2022-11-28T22:22:17.051Z,100.00
2022-11-28T22:24:44.991Z,100.00
2022-11-28T22:27:13.033Z,100.00
2022-11-28T22:29:41.051Z,100.00
2022-11-28T22:32:09.001Z,100.00
2022-11-28T22:34:39.937Z,100.00
2022-11-28T22:37:08.329Z,100.00
2022-11-28T22:39:38.828Z,100.00
2022-11-28T22:42:08.107Z,100.00
2022-11-28T22:44:38.094Z,100.00
2022-11-28T22:47:06.323Z,100.00
2022-11-28T22:49:34.168Z,100.00
2022-11-28T22:52:01.997Z,100.00
2022-11-28T22:54:30.033Z,100.00
2022-11-28T22:56:59.241Z,100.00
2022-11-28T22:59:27.726Z,100.00
2022-11-28T23:01:55.661Z,100.00
2022-11-28T23:04:23.824Z,100.00
2022-11-28T23:06:51.638Z,100.00
2022-11-28T23:09:19.448Z,100.00
2022-11-28T23:11:48.376Z,100.00
2022-11-28T23:14:17.561Z,100.00
2022-11-28T23:16:46.146Z,100.00
2022-11-28T23:19:15.258Z,100.00
2022-11-28T23:21:44.150Z,100.00
2022-11-28T23:24:13.757Z,100.00
2022-11-28T23:26:41.799Z,100.00
2022-11-28T23:29:09.824Z,100.00
2022-11-28T23:31:40.624Z,100.00
2022-11-28T23:34:09.061Z,100.00
2022-11-28T23:36:42.155Z,100.00
2022-11-28T23:39:11.822Z,100.00
2022-11-28T23:41:39.643Z,100.00
2022-11-28T23:44:07.483Z,100.00
2022-11-28T23:46:35.536Z,100.00
2022-11-28T23:49:05.630Z,100.00
2022-11-28T23:51:34.003Z,100.00
2022-11-28T23:54:01.906Z,100.00
2022-11-28T23:56:30.704Z,100.00
2022-11-28T23:58:58.618Z,100.00
